createdAt,value
2022-09-01T00:04:54.168Z,16.95
2022-09-01T00:09:57.213Z,16.93
2022-09-01T00:14:59.743Z,16.9
2022-09-01T00:20:02.212Z,16.89
2022-09-01T00:35:10.084Z,16.8
2022-09-01T00:40:12.691Z,16.76
2022-09-01T00:50:18.089Z,16.73
2022-09-01T01:00:23.740Z,16.69
2022-09-01T01:05:26.431Z,16.66
2022-09-01T01:20:34.458Z,16.6
2022-09-01T01:30:40.247Z,16.51
2022-09-01T01:40:45.707Z,16.41
2022-09-01T01:45:48.080Z,16.34
2022-09-01T01:55:53.665Z,16.22
2022-09-01T02:00:56.370Z,16.2
2022-09-01T02:05:58.960Z,16.18
2022-09-01T02:11:01.751Z,16.17
2022-09-01T02:16:04.339Z,16.12
2022-09-01T02:21:06.767Z,16.08
2022-09-01T02:26:17.801Z,16.01
2022-09-01T02:31:12.788Z,15.87
2022-09-01T02:36:15.685Z,15.79
2022-09-01T02:41:18.253Z,15.72
2022-09-01T02:46:21.106Z,15.66
2022-09-01T03:01:30.118Z,15.46
2022-09-01T03:06:32.505Z,15.36
2022-09-01T03:11:35.985Z,15.26
2022-09-01T03:16:38.512Z,15.14
2022-09-01T03:21:41.244Z,15.03
2022-09-01T03:31:46.321Z,14.86
2022-09-01T03:36:49.108Z,14.79
2022-09-01T03:46:57.839Z,14.72
2022-09-01T03:52:00.383Z,14.7
2022-09-01T03:57:03.957Z,14.65
2022-09-01T04:02:06.563Z,14.61
2022-09-01T04:07:36.142Z,14.59
2022-09-01T04:12:39.141Z,14.56
2022-09-01T04:17:42.032Z,14.5
2022-09-01T04:37:52.522Z,14.31
2022-09-01T04:48:03.491Z,14.4
2022-09-01T04:53:06.028Z,14.41
2022-09-01T05:08:18.113Z,14.68
2022-09-01T05:13:17.525Z,14.81
2022-09-01T05:18:20.515Z,14.94
2022-09-01T05:28:25.848Z,15.48
2022-09-01T05:33:28.708Z,15.39
2022-09-01T05:38:31.418Z,15.61
2022-09-01T05:53:39.623Z,16.01
2022-09-01T06:03:48.270Z,16.55
2022-09-01T06:08:50.901Z,16.7
2022-09-01T06:18:56.507Z,16.41
2022-09-01T06:23:59.212Z,16.79
2022-09-01T06:39:07.577Z,17.44
2022-09-01T06:44:14.403Z,17.44
2022-09-01T06:49:13.224Z,17.79
2022-09-01T06:59:19.101Z,18.71
2022-09-01T07:09:32.196Z,18.39
2022-09-01T07:14:27.407Z,18.71
2022-09-01T07:24:32.910Z,18.95
2022-09-01T07:29:35.596Z,18.68
2022-09-01T07:34:39.298Z,18.75
2022-09-01T07:42:58.291Z,18.77
2022-09-01T07:44:44.083Z,18.78
2022-09-01T07:50:13.001Z,19.18
2022-09-01T07:54:52.776Z,19.22
2022-09-01T07:59:55.535Z,19.55
2022-09-01T08:04:58.812Z,19.6
2022-09-01T08:20:09.385Z,19.39
2022-09-01T08:25:12.071Z,19.46
2022-09-01T08:30:14.738Z,19.41
2022-09-01T08:35:17.645Z,19.8
2022-09-01T08:40:23.569Z,19.68
2022-09-01T08:45:26.719Z,19.92
2022-09-01T08:50:29.222Z,19.94
2022-09-01T08:55:32.635Z,19.94
2022-09-01T09:00:35.168Z,19.95
2022-09-01T09:05:37.814Z,20.27
2022-09-01T09:10:43.200Z,19.95
2022-09-01T09:20:48.782Z,20.49
2022-09-01T09:25:51.501Z,20.6
2022-09-01T09:35:57.378Z,21.73
2022-09-01T09:41:27.624Z,20.76
2022-09-01T09:46:03.138Z,20.63
2022-09-01T09:51:07.542Z,20.94
2022-09-01T09:56:11.462Z,21.08
2022-09-01T10:01:32.635Z,21.97
2022-09-01T10:06:36.204Z,22.54
2022-09-01T10:11:40.999Z,21.98
2022-09-01T10:16:41.654Z,21.83
2022-09-01T10:21:44.102Z,21.34
2022-09-01T10:26:46.935Z,21.18
2022-09-01T10:31:49.401Z,20.97
2022-09-01T10:36:56.088Z,21.34
2022-09-01T10:47:02.336Z,21.6
2022-09-01T11:02:26.683Z,21.83
2022-09-01T11:07:11.880Z,22.76
2022-09-01T11:17:20.265Z,21.64
2022-09-01T11:22:22.568Z,21.93
2022-09-01T11:27:25.100Z,21.7
2022-09-01T11:32:27.714Z,21.53
2022-09-01T11:42:33.399Z,21.87
2022-09-01T11:47:36.633Z,21.95
2022-09-01T11:52:39.116Z,21.65
2022-09-01T12:07:47.407Z,22.72
2022-09-01T12:17:52.638Z,21.63
2022-09-01T12:22:55.220Z,21.46
2022-09-01T12:38:04.595Z,21.62
2022-09-01T12:43:06.560Z,21.68
2022-09-01T12:48:08.757Z,21.73
2022-09-01T12:53:11.583Z,21.81
2022-09-01T12:58:17.708Z,21.66
2022-09-01T13:03:20.428Z,21.73
2022-09-01T13:08:28.842Z,21.43
2022-09-01T13:13:31.466Z,21.62
2022-09-01T13:19:10.281Z,22.03
2022-09-01T13:23:37.892Z,22.67
2022-09-01T13:28:40.960Z,24.04
2022-09-01T13:38:51.878Z,22.83
2022-09-01T13:43:54.389Z,22.84
2022-09-01T13:49:41.927Z,23.44
2022-09-01T13:54:00.388Z,22.76
2022-09-01T13:59:02.762Z,22.34
2022-09-01T14:09:12.559Z,22.23
2022-09-01T14:14:16.415Z,22.45
2022-09-01T14:19:19.205Z,22.24
2022-09-01T14:24:21.804Z,22.18
2022-09-01T14:29:24.484Z,22.06
2022-09-01T14:34:36.406Z,22.16
2022-09-01T14:39:39.732Z,22.23
2022-09-01T14:44:42.438Z,22.08
2022-09-01T14:49:45.741Z,22.07
2022-09-01T14:59:51.147Z,22.32
2022-09-01T15:04:53.814Z,22.19
2022-09-01T15:09:56.397Z,21.99
2022-09-01T15:14:58.864Z,22.03
2022-09-01T15:20:01.801Z,22.12
2022-09-01T15:25:04.527Z,22.15
2022-09-01T15:30:07.133Z,22.34
2022-09-01T15:35:09.900Z,22.32
2022-09-01T15:40:12.492Z,22.26
2022-09-01T15:45:15.182Z,22.09
2022-09-01T15:50:19.387Z,22.16
2022-09-01T15:55:20.595Z,22
2022-09-01T16:05:26.413Z,21.85
2022-09-01T16:10:30.386Z,21.84
2022-09-01T16:15:32.247Z,21.57
2022-09-01T16:25:37.753Z,21.66
2022-09-01T16:30:40.370Z,21.53
2022-09-01T16:35:43.200Z,21.39
2022-09-01T16:40:46.034Z,21.26
2022-09-01T16:45:48.473Z,21.12
2022-09-01T16:50:54.537Z,20.94
2022-09-01T16:55:53.707Z,20.8
2022-09-01T17:00:56.400Z,20.73
2022-09-01T17:05:59.175Z,20.62
2022-09-01T17:11:01.650Z,20.55
2022-09-01T17:16:04.357Z,20.55
2022-09-01T17:21:07.013Z,20.51
2022-09-01T17:26:09.641Z,20.38
2022-09-01T17:31:12.321Z,20.28
2022-09-01T17:41:17.831Z,20.1
2022-09-01T17:56:25.673Z,19.88
2022-09-01T18:01:28.404Z,19.8
2022-09-01T18:06:30.826Z,19.68
2022-09-01T18:11:33.410Z,19.63
2022-09-01T18:16:36.079Z,19.55
2022-09-01T18:21:38.657Z,19.44
2022-09-01T18:26:41.229Z,19.43
2022-09-01T18:36:46.260Z,19.17
2022-09-01T18:41:48.945Z,19.13
2022-09-01T18:46:54.490Z,19.01
2022-09-01T18:51:57.075Z,18.97
2022-09-01T18:56:59.748Z,18.92
2022-09-01T19:02:02.401Z,18.91
2022-09-01T19:07:04.851Z,18.79
2022-09-01T19:12:07.366Z,18.7
2022-09-01T19:22:13.341Z,18.52
2022-09-01T19:27:15.462Z,18.5
2022-09-01T19:32:18.187Z,18.43
2022-09-01T19:42:26.361Z,18.34
2022-09-01T19:47:29.133Z,18.21
2022-09-01T19:52:31.773Z,18.15
2022-09-01T19:57:34.423Z,18.11
2022-09-01T20:02:36.972Z,18.03
2022-09-01T20:07:39.793Z,17.94
2022-09-01T20:12:42.484Z,17.89
2022-09-01T20:17:45.037Z,17.77
2022-09-01T20:22:47.695Z,17.77
2022-09-01T20:27:50.745Z,17.77
2022-09-01T20:32:53.112Z,17.69
2022-09-01T20:37:55.894Z,17.66
2022-09-01T20:42:58.419Z,17.64
2022-09-01T20:48:01.058Z,17.59
2022-09-01T20:53:03.703Z,17.57
2022-09-01T21:03:11.873Z,17.4
2022-09-01T21:08:11.788Z,17.39
2022-09-01T21:13:14.308Z,17.33
2022-09-01T21:18:16.836Z,17.27
2022-09-01T21:23:19.768Z,17.25
2022-09-01T21:28:22.365Z,17.19
2022-09-01T21:38:27.681Z,17.09
2022-09-01T21:48:42.004Z,17.06
2022-09-01T21:53:44.986Z,16.97
2022-09-01T21:58:49.950Z,16.85
2022-09-01T22:03:50.212Z,16.78
2022-09-01T22:13:55.694Z,16.63
2022-09-01T22:18:58.435Z,16.63
2022-09-01T22:24:01.149Z,16.53
2022-09-01T22:34:06.479Z,16.46
2022-09-01T22:44:14.784Z,16.47
2022-09-01T22:49:17.552Z,16.38
2022-09-01T22:54:19.889Z,16.39
2022-09-01T23:04:25.286Z,16.35
2022-09-01T23:09:27.722Z,16.33
2022-09-01T23:14:35.436Z,16.27
2022-09-01T23:19:38.285Z,16.25
2022-09-01T23:24:43.652Z,16.31
2022-09-01T23:29:46.457Z,16.35
2022-09-01T23:34:49.137Z,16.28
2022-09-01T23:39:51.901Z,16.25
2022-09-01T23:44:54.603Z,16.25
2022-09-01T23:55:02.784Z,16.28
